Latest METARs, TAFs and NOTAMs for EGGW


---------------------------------------------------------------------------
	(OBSERVATIONS)
EGGW 211720Z AUTO 21017KT 9999 OVC025 12/08 Q1000=
EGGW 211650Z AUTO 21020G31KT 9999 SCT025 BKN031 OVC043 12/08
    Q0999=
EGGW 211620Z AUTO 21018G28KT 9999 BKN030 BKN039 OVC049 12/08
    Q0999=
EGGW 211550Z AUTO 21019G30KT 9999 FEW030 SCT038 13/08 Q1000=
EGGW 211520Z AUTO 21022G35KT 9999 SCT032 BKN040 13/08 Q1000=
EGGW 211450Z AUTO 21019G31KT 9999 SCT037 BKN049 13/07 Q0999=
---------------------------------------------------------------------------
	(FC)
Sorry, FC For EGGW Not Found
---------------------------------------------------------------------------
	(TERMINAL AREA FORECAST)
EGGW 211658Z 2118/2218 21020G30KT 9999 SCT030
    BECMG 2118/2121 25013KT
    TEMPO 2118/2121 7000 SHRA BKN012
    PROB30 TEMPO 2121/2206 26016G26KT 7000 SHRA
    BECMG 2206/2209 26020G30KT
    TEMPO 2206/2210 7000 RA BKN014
    BECMG 2215/2218 27014KT=
---------------------------------------------------------------------------
	(NOTAMS)


EGGW A1275/17 AD CLOSED TO ALL MOVEMENTS DUE WIP. 0001-0530,
    06 JAN 00:01 2018 UNTIL 14 JAN 05:30 2018. CREATED: 12 APR
    13:23 2017

EGGW A1805/17 STANDS 16, 17, 18, 19 REPOSITIONED AS FOLLOWS:
    16, 17, 19, 18 NORTH TO SOUTH REPOSITIONED TO 16, 17, 18,
    19 NORTH TO SOUTH. COORDINATES TO BE SURVEYED. UK AIP CHART
    AD 2-EGGW-2-2 REFERS. 01 JUN 12:44 2017 UNTIL PERM. CREATED:
    01 JUN 12:59 2017

EGGW A2847/17 COMPASS SWING BASE AND HOLDING POINT Q1 CLOSED
    DUE TO AIRPORT EXPANSION WORKS. 27 AUG 13:00 2017 UNTIL 27
    NOV 13:00 2017. CREATED: 27 AUG 13:29 2017

EGGW A3066/17 A ZERO FLOW CAN BE EXPECTED TO ALLOW WIP TO CONTINUE.
    THE AIRPORT MAY BE MADE AVAILABLE FOR EMERGENCIES WITH 20
    MIN NOTICE FOLLOWING CO-ORDINATION WITH THE AIRPORT AUTHORITY.
    SUN-MON 0200-0430, 16 SEP 22:13 2017 UNTIL 05 NOV 04:30 2017.
    CREATED: 16 SEP 22:14 2017

EGGW A3209/17 TRIGGER NOTAM - PERM AIRAC AIP AMDT 12/2017 WEF
    09 NOV 2017 STAR CHARTS - MULTIPLE CHANGES INITIAL APPROACH
    PROCEDURE CHARTS - PAGE NUMBERS. CLN VOR RECALIBRATED. CLN
    RADIAL. 09 NOV 00:00 2017 UNTIL 23 NOV 23:59 2017. CREATED:
    28 SEP 06:33 2017

EGGW A3252/17 TWY BRAVO AND TWY ALPHA BETWEEN A6 AND A7 CLOSED
    DUE TO WIP. MON-FRI 2100-0500, 02 OCT 21:00 2017 UNTIL 04
    NOV 05:00 2017. CREATED: 30 SEP 09:39 2017

EGGW A3444/17 AD CLOSED TO ALL AIRCRAFT MOVEMENTS DUE WIP. 0001-0530,
    06 NOV 00:01 2017 UNTIL 02 DEC 05:30 2017. CREATED: 17 OCT
    10:57 2017

EGGW A3459/17 A LIT TOWER CRANE WILL BE OPERATING AT A POSITION
    OF 515239N 0002440W (LUTON TOWN CENTRE), BEARING 275 DEGREES,
    2964M FROM LONDON LUTON ARP, MAX HGT 318FT AGL, 669FT AMSL.
    MON-FRI 0800-1800, SAT 0800-1300, 16 NOV 08:00 2017 UNTIL
    22 NOV 18:00 2017. CREATED: 18 OCT 16:57 2017

EGGW A3479/17 ILS RWY 08/26 SUBJECT TO INTERRUPTIONS OF SERVICE
    AND DOWNGRADES TO ALLOW ENGINEERING WORK. SUBJECT TO WEATHER.
    0900-1530, 23 OCT 09:00 2017 UNTIL 26 OCT 15:30 2017. CREATED:
    20 OCT 08:35 2017

EGGW A3480/17 INSTR RVR RWY 08 TOUCHDOWN (RWY 26 STOPEND) U/S
    SUBJECT TO WEATHER. 0900-1530, 23 OCT 09:00 2017 UNTIL 24
    OCT 15:30 2017. CREATED: 20 OCT 08:40 2017

EGGW H6439/17 FIREWORK DISPLAY WI 0.5NM RADIUS 515623N 0001526W
    (HITCHIN, HERTFORDSHIRE). FOR INFO 07971 171440. 2017-11-0080/AS2.
    SFC - 900FT AMSL, 03 NOV 18:15 2017 UNTIL 03 NOV 19:00 2017.
    CREATED: 13 OCT 11:12 2017

EGGW H6468/17 FIREWORK DISPLAY WI 0.5NM RADIUS 515147N 0002700W
    (CADDINGTON, BEDFORDSHIRE). FOR INFO 01582 726058 OR 07786180945.
    2017-11-0083/AS2. SFC - 900FT AMSL, 03 NOV 19:35 2017 UNTIL
    03 NOV 21:00 2017. CREATED: 16 OCT 09:42 2017

EGGW H6470/17 SEARCHLIGHT DISPLAY. WI 1NM RADIUS. 515331N 0003230W
    (DUNSTABLE, CENTRAL BEDFORDSHIRE). FOR INFO 07561 206377.
    17-11-0090/ AS2. SFC - UNL, 03 NOV 16:00 2017 UNTIL 03 NOV
    21:00 2017. CREATED: 16 OCT 09:43 2017

EGGW H6486/17 FIREWORK DISPLAY WI 0.5NM RADIUS 515317N 0002455W
    (LUTON, BEDFORDSHIRE). FOR INFO 07836 729691. 17-11-0092/AS2.
    SFC - 1100FT AMSL, 04 NOV 19:15 2017 UNTIL 04 NOV 20:05 2017.
    CREATED: 16 OCT 14:13 2017

---------------------------------------------------------------------------